Midway, Minnesota
Current Conditions -  °F | °C
As of 11:53 AM on Friday 31 Oct 2014 (Local Time) from KPKD Reporting Station
Clear Clear  
Wind Chill: 31°   Ceiling: Unl
Heat Index: 31°   Visibility: 10mi
Dew Point: 19°   Wind: 0mph
Humidity: 61%   Direction: NA
Pressure: 30.56"   Gusts: NA
Location:  46.7591°N, 94.9748°W
Report Text: KPKD 311653Z AUTO 00000KT 10SM CLR M01/M07 A3056 RMK AO2 SLP370 T10061072 TSNO
Loading
Personal Weather Stations






























Interactive Weather Map
Tropical Storm Tracking
New forecast layout! Learn more

10-Day Weather Forecast

Advertisements
Track Severe Weather on mobile